Time;durP1;ratioP1;P1;durP2;ratioP2;P2;SDS_P1;SDS_P2;PMS_P1;PMS_P2;Temp;Humidity;BMP_temperature;BMP_pressure;BME280_temperature;BME280_humidity;BME280_pressure;Samples;Min_cycle;Max_cycle;Signal;HPM_P1;HPM_P2
2023/10/15 00:04:39;;;;;;;6.90;2.30;;;;;;;10.76;86.17;98520.73;224780;1266;23799;-80
2023/10/15 00:10:02;;;;;;;7.60;2.90;;;;;;;10.69;85.78;98522.08;224755;1286;22605;-81
2023/10/15 00:16:02;;;;;;;;;;;;;;;;;;;;;
2023/10/15 00:22:35;;;;;;;7.70;2.20;;;;;;;10.59;85.29;98521.57;224880;1285;22561;-81
2023/10/15 00:27:54;;;;;;;5.40;2.00;;;;;;;10.55;85.38;98505.55;225024;1285;22578;-81
2023/10/15 00:34:26;;;;;;;;;;;;;;;;;;;;;
2023/10/15 00:47:04;;;;;;;6.70;2.50;;;;;;;10.39;85.42;98506.33;225001;1285;22561;-80
2023/10/15 00:59:59;;;;;;;;;;;;;;;;;;;;;
2023/10/15 01:13:03;;;;;;;;;;;;;;;;;;;;;
2023/10/15 01:24:53;;;;;;;9.30;3.40;;;;;;;9.99;86.91;98512.86;225207;1285;22549;-81
2023/10/15 01:30:48;;;;;;;7.30;4.90;;;;;;;9.87;87.02;98519.02;225197;1285;22584;-80
2023/10/15 01:36:09;;;;;;;7.40;2.70;;;;;;;9.77;87.42;98518.03;224674;1290;22781;-81
2023/10/15 01:41:19;;;;;;;8.50;3.30;;;;;;;9.70;87.27;98523.24;224666;1267;24239;-81
2023/10/15 01:53:48;;;;;;;10.00;3.10;;;;;;;9.62;87.50;98517.73;224651;1290;23440;-80
2023/10/15 01:59:09;;;;;;;;;;;;;;;;;;;;;
2023/10/15 02:04:57;;;;;;;7.70;3.30;;;;;;;9.55;86.53;98505.11;224625;1279;23596;-81
2023/10/15 02:10:19;;;;;;;6.00;2.60;;;;;;;9.51;86.37;98497.81;224697;1285;22536;-81
2023/10/15 02:15:46;;;;;;;10.10;3.10;;;;;;;9.47;85.96;98494.14;224574;1289;22552;-80
2023/10/15 02:26:30;;;;;;;10.80;3.00;;;;;;;9.36;85.44;98496.16;224570;1291;22560;-80
2023/10/15 02:39:18;;;;;;;;;;;;;;;;;;;;;
2023/10/15 02:45:11;;;;;;;8.60;3.10;;;;;;;9.10;85.51;98514.29;225089;1285;22579;-81
2023/10/15 02:50:40;;;;;;;7.40;2.90;;;;;;;8.97;85.46;98507.08;225154;1285;22535;-80
2023/10/15 02:56:37;;;;;;;9.60;2.50;;;;;;;8.84;85.06;98517.62;225203;1283;22549;-79
2023/10/15 03:03:26;;;;;;;;;;;;;;;;;;;;;
2023/10/15 03:10:21;;;;;;;;;;;;;;;;;;;;;
2023/10/15 03:16:23;;;;;;;4.30;1.50;;;;;;;8.32;84.19;98543.13;224066;1282;22582;-80
2023/10/15 03:22:23;;;;;;;5.30;1.90;;;;;;;8.16;84.34;98541.77;225188;1264;22531;-80
2023/10/15 03:28:12;;;;;;;4.60;1.80;;;;;;;8.03;84.23;98550.98;225186;1285;22591;-80
2023/10/15 03:46:47;;;;;;;6.60;2.40;;;;;;;7.71;84.18;98558.58;224485;1283;22584;-81
2023/10/15 03:52:36;;;;;;;6.00;1.60;;;;;;;7.64;84.44;98561.02;224932;1285;22561;-79
2023/10/15 03:58:10;;;;;;;2.90;1.30;;;;;;;7.60;84.07;98567.88;225160;1285;22549;-80
2023/10/15 04:04:02;;;;;;;;;;;;;;;;;;;;;
2023/10/15 04:09:27;;;;;;;;;;;;;;;;;;;;;
2023/10/15 04:15:30;;;;;;;6.20;1.60;;;;;;;7.47;83.95;98558.55;225141;1285;25278;-81
2023/10/15 04:29:16;;;;;;;9.40;3.10;;;;;;;7.47;83.72;98578.24;225189;1285;22533;-80
2023/10/15 04:41:53;;;;;;;;;;;;;;;7.35;84.12;98579.92;225158;1285;22531;-81
2023/10/15 04:47:41;;;;;;;7.40;2.10;;;;;;;7.25;84.24;98580.00;225213;1280;22545;-80
2023/10/15 04:53:23;;;;;;;8.50;2.80;;;;;;;7.13;84.31;98582.49;225215;1283;22546;-80
2023/10/15 04:59:54;;;;;;;5.50;1.80;;;;;;;7.04;84.19;98591.55;225222;1285;22562;-80
2023/10/15 05:06:25;;;;;;;7.30;2.30;;;;;;;7.01;84.16;98603.51;225197;1264;22568;-80
2023/10/15 05:13:06;;;;;;;;;;;;;;;;;;;;;
2023/10/15 05:19:44;;;;;;;8.20;2.30;;;;;;;6.99;84.11;98607.02;225151;1285;25342;-80
2023/10/15 05:26:49;;;;;;;;;;;;;;;;;;;;;
2023/10/15 05:33:12;;;;;;;6.30;1.80;;;;;;;6.91;84.31;98617.58;222388;1292;22752;-80
2023/10/15 05:38:37;;;;;;;7.20;2.10;;;;;;;6.90;84.37;98619.41;225094;1285;22553;-80
2023/10/15 05:43:58;;;;;;;6.80;1.90;;;;;;;6.90;84.21;98630.96;225176;1285;22550;-82
2023/10/15 05:50:01;;;;;;;;;;;;;;;;;;;;;
2023/10/15 05:55:33;;;;;;;7.50;2.20;;;;;;;6.93;84.15;98637.10;225076;1285;22552;-81
2023/10/15 06:01:02;;;;;;;6.20;2.00;;;;;;;6.92;84.03;98636.19;225232;1285;22591;-80
2023/10/15 06:06:24;;;;;;;7.80;2.00;;;;;;;6.91;83.92;98639.94;225222;1283;22559;-80
2023/10/15 06:11:30;;;;;;;8.50;2.30;;;;;;;6.92;83.92;98653.88;225118;1285;22558;-80
2023/10/15 06:16:36;;;;;;;6.40;2.00;;;;;;;6.94;84.30;98660.15;225063;1285;24535;-80
2023/10/15 06:21:47;;;;;;;9.20;2.80;;;;;;;6.97;84.20;98657.88;225174;1285;22544;-80
2023/10/15 06:26:55;;;;;;;9.80;2.30;;;;;;;7.02;84.55;98660.77;225232;1283;22557;-80
2023/10/15 06:32:18;;;;;;;6.80;1.70;;;;;;;7.12;84.37;98659.37;225189;1285;24238;-80
2023/10/15 06:37:29;;;;;;;8.20;2.00;;;;;;;7.24;84.06;98661.73;225226;1285;22604;-80
2023/10/15 06:43:30;;;;;;;5.80;1.60;;;;;;;7.39;83.83;98664.08;225132;1285;22565;-80
2023/10/15 06:48:45;;;;;;;4.60;1.30;;;;;;;7.55;83.41;98661.21;225212;1285;22652;-79
2023/10/15 06:54:54;;;;;;;;;;;;;;;;;;;;;
2023/10/15 07:00:47;;;;;;;;;;;;;;;;;;;;;
2023/10/15 07:06:42;;;;;;;5.70;1.40;;;;;;;7.99;81.84;98673.11;225224;1285;22542;-81
2023/10/15 07:12:26;;;;;;;;;;;;;;;;;;;;;
2023/10/15 07:17:50;;;;;;;6.80;2.10;;;;;;;8.21;81.37;98666.70;225144;1285;22556;-79
2023/10/15 07:23:16;;;;;;;5.20;1.50;;;;;;;8.30;80.67;98665.53;225151;1285;22586;-80
2023/10/15 07:29:01;;;;;;;6.00;1.80;;;;;;;8.45;80.45;98668.81;224703;1290;22663;-80
2023/10/15 07:34:53;;;;;;;5.40;1.70;;;;;;;8.61;79.90;98668.71;224644;1289;24181;-80
2023/10/15 07:40:14;;;;;;;3.70;1.40;;;;;;;8.77;79.82;98673.34;224666;1290;22552;-80
2023/10/15 07:45:37;;;;;;;7.30;1.70;;;;;;;8.91;78.88;98673.80;224915;1285;22566;-80
2023/10/15 07:51:10;;;;;;;8.00;2.40;;;;;;;9.03;78.33;98670.16;225179;1285;25270;-81
2023/10/15 07:57:38;;;;;;;;;;;;;;;;;;;;;
2023/10/15 08:03:06;;;;;;;4.10;1.50;;;;;;;9.22;77.47;98676.63;225246;1285;22571;-80
2023/10/15 08:08:24;;;;;;;4.30;1.50;;;;;;;9.33;77.22;98678.95;225180;1285;22574;-80
2023/10/15 08:14:08;;;;;;;;;;;;;;;;;;;;;
2023/10/15 08:20:37;;;;;;;6.60;1.70;;;;;;;9.60;76.66;98680.59;225178;1285;22553;-80
2023/10/15 08:26:29;;;;;;;5.40;1.20;;;;;;;9.77;76.47;98675.80;225253;1285;22542;-80
2023/10/15 08:32:03;;;;;;;8.50;2.00;;;;;;;9.95;76.21;98674.37;225233;1285;22536;-80
2023/10/15 08:37:56;;;;;;;3.30;1.50;;;;;;;10.15;75.55;98675.30;225190;1285;22661;-81
2023/10/15 08:43:44;;;;;;;;;;;;;;;;;;;;;
2023/10/15 08:49:24;;;;;;;3.50;1.60;;;;;;;10.61;74.56;98688.63;225014;1288;22586;-81
2023/10/15 08:54:30;;;;;;;2.20;1.10;;;;;;;10.73;74.10;98689.61;224957;1279;22542;-81
2023/10/15 08:59:50;;;;;;;3.60;1.40;;;;;;;10.76;73.21;98689.84;224909;1287;23606;-81
2023/10/15 09:05:45;;;;;;;4.80;1.50;;;;;;;10.86;72.90;98682.24;224959;1287;22790;-81
2023/10/15 09:11:13;;;;;;;4.00;1.20;;;;;;;11.06;72.63;98675.34;224987;1287;22555;-81
2023/10/15 09:16:19;;;;;;;4.40;1.20;;;;;;;11.13;72.34;98670.20;224915;1281;22564;-79
2023/10/15 09:21:37;;;;;;;5.70;1.60;;;;;;;11.20;71.81;98669.33;225155;1285;25465;-81
2023/10/15 09:26:41;;;;;;;2.50;1.40;;;;;;;11.20;71.71;98664.13;225279;1283;22550;-80
2023/10/15 09:31:56;;;;;;;3.60;1.20;;;;;;;11.33;72.00;98661.92;225234;1279;24221;-80
2023/10/15 09:37:09;;;;;;;2.70;1.40;;;;;;;11.56;71.77;98664.10;225259;1285;22537;-80
2023/10/15 09:42:33;;;;;;;3.90;1.20;;;;;;;11.76;70.75;98654.10;225233;1285;22561;-80
2023/10/15 09:48:09;;;;;;;4.20;1.40;;;;;;;11.97;69.92;98654.18;225234;1285;22542;-81
2023/10/15 09:54:02;;;;;;;3.70;1.50;;;;;;;12.12;68.90;98648.19;225053;1286;24338;-81
2023/10/15 09:59:52;;;;;;;4.80;1.30;;;;;;;12.08;68.12;98645.32;225006;1277;22546;-81
2023/10/15 10:05:44;;;;;;;2.60;1.20;;;;;;;11.97;67.35;98646.41;225034;1280;22574;-80
2023/10/15 10:12:15;;;;;;;;;;;;;;;;;;;;;
2023/10/15 10:18:03;;;;;;;3.10;1.10;;;;;;;12.25;67.42;98633.41;225218;1285;22615;-80
2023/10/15 10:23:22;;;;;;;4.30;1.50;;;;;;;12.31;65.55;98634.89;225185;1285;22594;-81
2023/10/15 10:28:54;;;;;;;3.50;0.90;;;;;;;12.03;63.29;98629.22;225265;1285;24218;-80
2023/10/15 10:34:08;;;;;;;2.80;0.90;;;;;;;11.78;63.17;98627.16;225100;1264;22563;-80
2023/10/15 10:39:14;;;;;;;4.30;1.20;;;;;;;11.68;62.78;98624.79;225192;1280;25236;-81
2023/10/15 10:44:33;;;;;;;2.80;0.90;;;;;;;11.83;63.71;98620.61;225237;1285;22543;-81
2023/10/15 10:49:40;;;;;;;3.10;1.10;;;;;;;12.14;63.16;98617.70;225209;1285;22553;-81
2023/10/15 10:55:37;;;;;;;2.60;1.10;;;;;;;12.27;62.19;98613.45;225190;1283;23306;-80
2023/10/15 11:00:55;;;;;;;5.00;1.30;;;;;;;12.53;62.72;98604.68;225194;1285;22581;-81
2023/10/15 11:06:07;;;;;;;3.10;1.10;;;;;;;12.86;62.64;98608.61;225221;1285;22661;-81
2023/10/15 11:11:21;;;;;;;4.50;1.20;;;;;;;13.02;61.24;98605.06;225201;1285;22554;-81
2023/10/15 11:16:59;;;;;;;6.70;1.20;;;;;;;13.03;61.07;98604.70;225215;1285;22653;-81
2023/10/15 11:22:16;;;;;;;3.30;1.10;;;;;;;12.92;60.74;98596.64;225236;1284;22955;-81
2023/10/15 11:27:26;;;;;;;5.80;1.50;;;;;;;12.57;60.22;98599.59;225229;1285;22616;-80
2023/10/15 11:32:34;;;;;;;3.00;0.90;;;;;;;12.10;60.13;98603.20;225180;1283;22570;-80
2023/10/15 11:37:52;;;;;;;7.60;1.60;;;;;;;11.61;60.11;98597.61;225203;1285;22689;-80
2023/10/15 11:43:17;;;;;;;4.00;1.40;;;;;;;11.19;60.30;98598.16;225268;1267;22564;-80
2023/10/15 11:48:34;;;;;;;5.00;1.20;;;;;;;10.86;60.86;98594.09;225191;1285;22543;-80
2023/10/15 11:54:09;;;;;;;3.70;1.60;;;;;;;10.63;60.88;98588.80;225205;1285;22564;-80
2023/10/15 11:59:58;;;;;;;4.30;1.10;;;;;;;10.45;61.26;98589.78;225218;1285;22551;-80
2023/10/15 12:05:09;;;;;;;6.90;1.40;;;;;;;10.51;61.42;98582.15;225233;1285;22576;-80
2023/10/15 12:10:41;;;;;;;5.40;1.20;;;;;;;10.69;60.55;98582.95;225171;1285;22553;-80
2023/10/15 12:16:02;;;;;;;4.90;0.80;;;;;;;10.67;60.42;98589.99;225249;1285;22544;-80
2023/10/15 12:21:30;;;;;;;;;;;;;;;;;;;;;
2023/10/15 12:27:11;;;;;;;;;;;;;;;;;;;;;
2023/10/15 12:32:58;;;;;;;3.50;1.30;;;;;;;10.99;60.70;98581.88;225256;1285;22554;-80
2023/10/15 12:38:39;;;;;;;3.40;1.30;;;;;;;11.23;60.55;98577.20;225254;1285;22599;-80
2023/10/15 12:44:45;;;;;;;5.70;1.30;;;;;;;11.42;60.21;98571.61;225179;1285;22557;-80
2023/10/15 12:50:18;;;;;;;6.60;1.70;;;;;;;11.50;59.88;98570.17;225233;1285;22546;-80
2023/10/15 12:55:59;;;;;;;;;;;;;;;;;;;;;
2023/10/15 13:02:04;;;;;;;;;;;;;;;;;;;;;
2023/10/15 13:08:03;;;;;;;4.60;1.00;;;;;;;11.34;60.55;98574.23;224951;1288;22982;-79
2023/10/15 13:14:08;;;;;;;3.40;1.00;;;;;;;11.59;60.91;98577.94;224941;1288;23806;-80
2023/10/15 13:19:18;;;;;;;7.40;1.20;;;;;;;11.84;60.88;98573.11;225080;1285;22569;-81
2023/10/15 13:24:30;;;;;;;4.80;1.40;;;;;;;11.90;60.54;98573.96;225238;1285;22550;-80
2023/10/15 13:30:35;;;;;;;;;;;;;;;;;;;;;
2023/10/15 13:36:19;;;;;;;2.90;1.30;;;;;;;12.03;59.92;98568.88;225191;1285;22577;-80
2023/10/15 13:42:15;;;;;;;;;;;;;;;;;;;;;
2023/10/15 13:47:48;;;;;;;6.20;1.20;;;;;;;12.04;59.00;98567.09;222675;1285;22562;-80
2023/10/15 13:53:35;;;;;;;;;;;;;;;;;;;;;
2023/10/15 13:58:57;;;;;;;3.80;1.90;;;;;;;11.86;59.83;98558.89;225228;1285;24940;-80
2023/10/15 14:05:08;;;;;;;2.10;0.90;;;;;;;11.81;59.72;98561.52;224569;1291;22590;-80
2023/10/15 14:10:53;;;;;;;3.50;1.30;;;;;;;11.67;59.71;98562.40;224608;1291;22793;-83
2023/10/15 14:16:25;;;;;;;5.10;1.70;;;;;;;11.53;59.92;98557.29;224606;1289;22567;-80
2023/10/15 14:22:30;;;;;;;6.40;1.80;;;;;;;11.42;60.11;98557.73;224896;1285;22578;-81
2023/10/15 14:28:50;;;;;;;5.90;1.50;;;;;;;11.33;60.26;98557.38;225154;1285;24290;-80
2023/10/15 14:34:33;;;;;;;5.60;1.70;;;;;;;11.18;60.05;98558.58;225203;1285;22541;-80
2023/10/15 14:40:14;;;;;;;4.40;1.30;;;;;;;11.07;60.22;98560.65;225187;1285;22560;-80
2023/10/15 14:45:49;;;;;;;6.40;1.60;;;;;;;10.96;60.50;98561.82;225125;1285;22553;-81
2023/10/15 14:51:00;;;;;;;4.40;1.60;;;;;;;10.85;60.80;98565.61;225160;1285;22560;-79
2023/10/15 14:56:14;;;;;;;4.40;2.30;;;;;;;10.76;61.10;98566.30;225184;1283;22592;-81
2023/10/15 15:01:20;;;;;;;6.00;1.60;;;;;;;10.68;61.33;98563.89;225197;1282;23282;-80
2023/10/15 15:06:36;;;;;;;5.00;1.50;;;;;;;10.63;61.47;98561.59;225220;1285;22582;-80
2023/10/15 15:12:25;;;;;;;;;;;;;;;;;;;;;
2023/10/15 15:18:12;;;;;;;;;;;;;;;;;;;;;
2023/10/15 15:23:59;;;;;;;;;;;;;;;;;;;;;
2023/10/15 15:30:16;;;;;;;6.60;3.50;;;;;;;10.80;62.46;98569.02;225149;1285;22574;-80
2023/10/15 15:43:08;;;;;;;;;;;;;;;;;;;;;
2023/10/15 15:49:01;;;;;;;4.10;1.70;;;;;;;10.54;62.46;98591.08;225210;1285;23036;-81
2023/10/15 15:55:12;;;;;;;3.90;1.60;;;;;;;10.44;62.65;98593.80;225139;1285;22569;-80
2023/10/15 16:00:50;;;;;;;5.90;2.50;;;;;;;10.32;63.01;98602.67;225209;1283;22547;-80
2023/10/15 16:06:25;;;;;;;8.80;3.90;;;;;;;10.22;63.37;98605.64;225021;1285;22610;-80
2023/10/15 16:11:54;;;;;;;10.50;4.50;;;;;;;10.11;63.48;98611.84;225106;1285;22546;-80
2023/10/15 16:18:24;;;;;;;8.30;4.20;;;;;;;9.92;63.87;98620.31;225232;1285;22553;-80
2023/10/15 16:24:24;;;;;;;7.80;3.50;;;;;;;9.70;64.43;98630.39;225121;1285;25059;-80
2023/10/15 16:29:58;;;;;;;5.30;2.60;;;;;;;9.47;64.61;98632.83;225193;1285;22551;-80
2023/10/15 16:35:19;;;;;;;9.50;4.10;;;;;;;9.31;64.71;98648.33;225188;1280;22546;-79
2023/10/15 16:40:36;;;;;;;6.30;3.10;;;;;;;9.14;65.41;98656.99;225125;1285;23615;-80
2023/10/15 16:45:53;;;;;;;7.00;2.60;;;;;;;8.98;65.95;98664.17;225204;1280;22563;-80
2023/10/15 16:51:06;;;;;;;7.10;2.50;;;;;;;8.82;66.76;98679.09;225192;1285;22579;-80
2023/10/15 16:56:31;;;;;;;6.70;2.80;;;;;;;8.65;67.44;98686.20;225166;1285;22557;-81
2023/10/15 17:01:34;;;;;;;6.90;2.80;;;;;;;8.49;67.53;98692.90;225188;1280;22624;-80
2023/10/15 17:06:37;;;;;;;8.00;2.80;;;;;;;8.35;68.02;98697.35;225125;1279;22557;-80
2023/10/15 17:11:52;;;;;;;6.80;2.60;;;;;;;8.21;68.76;98706.55;225166;1279;22540;-80
2023/10/15 17:17:31;;;;;;;5.90;2.60;;;;;;;8.06;69.49;98707.80;225172;1285;22550;-80
2023/10/15 17:22:37;;;;;;;8.20;2.50;;;;;;;7.94;69.66;98712.69;225175;1285;22591;-80
2023/10/15 17:27:50;;;;;;;5.00;2.40;;;;;;;7.87;69.87;98723.54;225093;1285;22551;-82
2023/10/15 17:33:05;;;;;;;5.10;1.70;;;;;;;7.84;70.54;98721.96;225155;1285;23084;-80
2023/10/15 17:38:16;;;;;;;4.60;1.90;;;;;;;7.87;70.97;98720.59;225169;1285;22545;-79
2023/10/15 17:43:42;;;;;;;4.60;2.30;;;;;;;7.92;71.03;98726.46;225144;1276;22593;-79
2023/10/15 17:49:11;;;;;;;3.50;1.80;;;;;;;7.94;71.21;98731.63;225210;1285;23017;-80
2023/10/15 17:54:26;;;;;;;6.30;2.10;;;;;;;7.96;71.56;98743.73;225220;1285;22547;-80
2023/10/15 17:59:35;;;;;;;8.10;2.20;;;;;;;7.95;71.68;98750.33;225184;1285;22559;-80
2023/10/15 18:05:26;;;;;;;7.40;2.50;;;;;;;7.91;71.35;98758.70;225226;1285;22554;-81
2023/10/15 18:10:37;;;;;;;6.50;2.40;;;;;;;7.83;71.73;98768.71;225194;1285;26006;-80
2023/10/15 18:15:39;;;;;;;6.20;2.10;;;;;;;7.76;71.75;98769.98;225201;1283;22626;-80
2023/10/15 18:20:46;;;;;;;5.70;2.60;;;;;;;7.68;72.19;98774.88;225145;1285;22665;-79
2023/10/15 18:25:53;;;;;;;6.60;3.00;;;;;;;7.60;72.31;98778.84;225112;1285;22534;-79
2023/10/15 18:31:13;;;;;;;7.10;3.10;;;;;;;7.53;72.49;98780.88;225207;1283;22576;-79
2023/10/15 18:36:47;;;;;;;;;;;;;;;7.44;72.52;98794.72;225209;1285;26005;-79
2023/10/15 18:42:15;;;;;;;8.40;3.00;;;;;;;7.33;72.81;98800.16;224765;1286;22588;-81
2023/10/15 18:47:40;;;;;;;4.70;2.50;;;;;;;7.24;73.01;98804.26;224775;1289;22600;-80
2023/10/15 18:52:56;;;;;;;5.70;2.50;;;;;;;7.23;73.49;98810.33;224794;1286;25558;-79
2023/10/15 18:58:01;;;;;;;6.80;2.90;;;;;;;7.25;73.77;98815.95;224770;1286;22565;-79
2023/10/15 19:03:15;;;;;;;8.00;3.40;;;;;;;7.24;73.63;98818.65;224799;1283;22557;-79
2023/10/15 19:08:28;;;;;;;7.60;3.40;;;;;;;7.21;73.48;98819.19;224763;1289;25529;-79
2023/10/15 19:13:51;;;;;;;7.20;3.40;;;;;;;7.12;73.70;98824.55;225093;1283;23446;-79
2023/10/15 19:18:59;;;;;;;6.70;2.40;;;;;;;7.00;74.07;98825.14;225163;1279;22568;-80
2023/10/15 19:24:03;;;;;;;6.70;2.80;;;;;;;6.89;73.89;98831.38;225151;1280;22549;-80
2023/10/15 19:29:15;;;;;;;5.40;2.90;;;;;;;6.76;74.23;98840.48;225196;1282;22553;-81
2023/10/15 19:34:18;;;;;;;8.40;3.20;;;;;;;6.65;74.67;98843.75;225139;1280;22623;-80
2023/10/15 19:39:26;;;;;;;5.00;2.90;;;;;;;6.62;75.17;98852.31;225222;1279;22564;-79
2023/10/15 19:44:36;;;;;;;4.70;2.10;;;;;;;6.64;75.41;98848.06;225204;1285;22564;-79
2023/10/15 19:49:47;;;;;;;2.80;1.60;;;;;;;6.61;75.01;98846.98;225176;1285;22562;-80
2023/10/15 19:54:56;;;;;;;8.50;1.90;;;;;;;6.52;74.94;98857.21;225126;1263;22560;-81
2023/10/15 20:00:20;;;;;;;3.90;2.10;;;;;;;6.41;74.71;98860.42;225182;1283;25320;-80
2023/10/15 20:05:29;;;;;;;5.30;2.40;;;;;;;6.30;75.07;98870.65;225111;1285;22560;-80
2023/10/15 20:10:40;;;;;;;6.50;2.10;;;;;;;6.20;75.25;98877.90;225149;1270;22540;-79
2023/10/15 20:16:03;;;;;;;6.90;2.80;;;;;;;6.10;75.97;98884.14;225152;1285;22555;-79
2023/10/15 20:21:33;;;;;;;6.70;3.30;;;;;;;6.06;76.25;98893.15;225139;1285;25264;-80
2023/10/15 20:26:41;;;;;;;5.80;3.10;;;;;;;6.08;76.64;98904.27;225188;1267;25270;-79
2023/10/15 20:32:11;;;;;;;6.70;3.90;;;;;;;6.12;76.87;98917.14;225132;1285;22576;-80
2023/10/15 20:38:02;;;;;;;;;;;;;;;;;;;;;
2023/10/15 20:43:43;;;;;;;5.40;2.90;;;;;;;6.29;77.10;98921.13;225158;1285;22560;-79
2023/10/15 20:49:04;;;;;;;8.40;3.20;;;;;;;6.37;77.23;98925.11;225184;1285;22597;-79
2023/10/15 20:54:08;;;;;;;6.90;3.30;;;;;;;6.40;77.32;98921.58;225131;1284;22694;-79
2023/10/15 20:59:18;;;;;;;5.90;2.60;;;;;;;6.39;76.98;98924.14;225070;1285;22562;-80
2023/10/15 21:04:35;;;;;;;7.40;3.40;;;;;;;6.30;77.17;98927.30;225189;1285;24775;-79
2023/10/15 21:09:42;;;;;;;5.80;2.70;;;;;;;6.21;77.24;98934.17;225143;1279;22614;-80
2023/10/15 21:15:34;;;;;;;;;;;;;;;;;;;;;
2023/10/15 21:21:07;;;;;;;5.10;2.20;;;;;;;6.17;77.56;98935.50;225137;1285;24251;-79
2023/10/15 21:26:45;;;;;;;4.20;2.40;;;;;;;6.17;77.38;98937.08;225185;1285;24240;-79
2023/10/15 21:32:21;;;;;;;6.30;2.40;;;;;;;6.16;77.43;98942.61;225115;1276;22564;-79
2023/10/15 21:37:58;;;;;;;4.90;2.40;;;;;;;6.13;77.59;98948.55;225077;1285;22606;-79
2023/10/15 21:43:12;;;;;;;4.10;1.90;;;;;;;6.13;77.32;98948.91;225104;1285;22595;-79
2023/10/15 21:49:01;;;;;;;4.00;2.00;;;;;;;6.19;77.61;98947.38;225105;1285;24410;-79
2023/10/15 21:54:34;;;;;;;4.10;2.20;;;;;;;6.24;77.86;98943.39;225127;1285;22621;-80
2023/10/15 22:00:49;;;;;;;;;;;;;;;;;;;;;
2023/10/15 22:07:52;;;;;;;4.40;2.20;;;;;;;6.25;77.67;98954.09;224978;1285;22573;-80
2023/10/15 22:13:40;;;;;;;;;;;;;;;;;;;;;
2023/10/15 22:19:44;;;;;;;2.90;1.80;;;;;;;6.27;77.68;98958.83;225192;1285;22588;-79
2023/10/15 22:26:04;;;;;;;2.80;1.60;;;;;;;6.26;77.44;98950.65;225196;1285;22556;-79
2023/10/15 22:32:10;;;;;;;3.50;1.80;;;;;;;6.19;77.26;98955.80;225154;1285;22628;-79
2023/10/15 22:37:45;;;;;;;3.00;1.60;;;;;;;6.09;77.26;98966.42;225178;1276;22544;-80
2023/10/15 22:42:59;;;;;;;2.50;1.60;;;;;;;6.00;77.26;98973.07;225233;1282;22578;-79
2023/10/15 22:48:41;;;;;;;;;;;;;;;;;;;;;
2023/10/15 22:53:59;;;;;;;2.10;1.30;;;;;;;5.98;77.43;98981.86;225176;1283;22559;-79
2023/10/15 22:59:21;;;;;;;2.60;1.60;;;;;;;5.98;77.48;98980.02;225174;1285;22549;-80
2023/10/15 23:04:58;;;;;;;3.50;1.40;;;;;;;5.97;77.15;98985.04;225220;1263;22553;-80
2023/10/15 23:10:27;;;;;;;3.90;2.00;;;;;;;5.93;77.34;98991.64;225210;1285;22559;-79
2023/10/15 23:16:02;;;;;;;4.10;1.70;;;;;;;5.85;77.21;98993.30;225175;1285;22591;-79
2023/10/15 23:21:39;;;;;;;2.90;1.70;;;;;;;5.82;77.72;99002.69;225152;1285;22563;-79
2023/10/15 23:27:40;;;;;;;;;;;;;;;;;;;;;
2023/10/15 23:33:28;;;;;;;2.30;1.70;;;;;;;5.58;77.55;98997.14;225263;1285;22561;-79
2023/10/15 23:39:19;;;;;;;3.20;1.80;;;;;;;5.42;77.49;98996.52;225245;1285;22567;-80
2023/10/15 23:44:53;;;;;;;3.00;1.50;;;;;;;5.29;77.59;99004.27;225186;1270;22545;-79
2023/10/15 23:50:15;;;;;;;3.10;1.70;;;;;;;5.18;77.77;99013.02;225228;1285;22560;-79
2023/10/15 23:56:41;;;;;;;2.30;1.60;;;;;;;5.09;77.96;99019.80;225148;1285;24274;-79
